createdAt,value
2023-04-08T00:03:25.296Z,5.55
2023-04-08T00:06:52.331Z,5.50
2023-04-08T00:10:19.521Z,5.46
2023-04-08T00:13:46.474Z,5.41
2023-04-08T00:17:13.417Z,5.37
2023-04-08T00:20:40.502Z,5.32
2023-04-08T00:24:08.321Z,5.27
2023-04-08T00:27:35.097Z,5.24
2023-04-08T00:31:02.184Z,5.22
2023-04-08T00:34:30.670Z,5.19
2023-04-08T00:37:57.592Z,5.19
2023-04-08T00:41:24.683Z,5.23
2023-04-08T00:44:51.639Z,5.26
2023-04-08T00:48:19.184Z,5.27
2023-04-08T00:51:46.006Z,5.24
2023-04-08T00:55:13.033Z,5.19
2023-04-08T00:58:40.735Z,5.15
2023-04-08T01:02:16.668Z,5.09
2023-04-08T01:05:54.760Z,5.04
2023-04-08T01:09:26.511Z,4.98
2023-04-08T01:12:57.323Z,4.92
2023-04-08T01:16:26.295Z,4.87
2023-04-08T01:19:55.280Z,4.82
2023-04-08T01:23:40.537Z,4.77
2023-04-08T01:27:08.847Z,4.73
2023-04-08T01:30:39.114Z,4.69
2023-04-08T01:34:07.606Z,4.67
2023-04-08T01:37:37.012Z,4.67
2023-04-08T01:41:05.724Z,4.65
2023-04-08T01:44:34.085Z,4.65
2023-04-08T01:48:02.482Z,4.60
2023-04-08T01:51:33.051Z,4.56
2023-04-08T01:55:00.897Z,4.49
2023-04-08T01:58:33.157Z,4.44
2023-04-08T02:02:02.237Z,4.38
2023-04-08T02:05:29.499Z,4.32
2023-04-08T02:08:57.889Z,4.26
2023-04-08T02:12:26.475Z,4.21
2023-04-08T02:15:58.375Z,4.15
2023-04-08T02:19:30.827Z,4.09
2023-04-08T02:23:04.790Z,4.03
2023-04-08T02:26:34.659Z,3.98
2023-04-08T02:30:01.161Z,3.93
2023-04-08T02:33:28.928Z,3.89
2023-04-08T02:36:57.929Z,3.84
2023-04-08T02:40:30.394Z,3.79
2023-04-08T02:43:57.576Z,3.74
2023-04-08T02:47:24.770Z,3.69
2023-04-08T02:50:51.885Z,3.65
2023-04-08T02:54:18.666Z,3.60
2023-04-08T02:57:45.767Z,3.56
2023-04-08T03:01:13.196Z,3.52
2023-04-08T03:04:40.079Z,3.47
2023-04-08T03:08:08.024Z,3.44
2023-04-08T03:11:35.058Z,3.40
2023-04-08T03:15:03.703Z,3.34
2023-04-08T03:18:30.688Z,3.29
2023-04-08T03:21:57.614Z,3.23
2023-04-08T03:25:24.640Z,3.17
2023-04-08T03:28:51.704Z,3.12
2023-04-08T03:32:18.852Z,3.04
2023-04-08T03:35:46.228Z,2.99
2023-04-08T03:39:13.137Z,2.94
2023-04-08T03:42:40.335Z,2.87
2023-04-08T03:46:07.101Z,2.82
2023-04-08T03:49:33.955Z,2.77
2023-04-08T03:53:01.111Z,2.74
2023-04-08T03:56:28.273Z,2.70
2023-04-08T03:59:55.519Z,2.67
2023-04-08T04:03:23.087Z,2.64
2023-04-08T04:06:50.049Z,2.60
2023-04-08T04:10:17.418Z,2.55
2023-04-08T04:13:44.554Z,2.50
2023-04-08T04:17:11.447Z,2.46
2023-04-08T04:20:40.869Z,2.42
2023-04-08T04:24:08.642Z,2.40
2023-04-08T04:27:35.589Z,2.39
2023-04-08T04:31:02.902Z,2.35
2023-04-08T04:34:29.980Z,2.33
2023-04-08T04:37:56.974Z,2.32
2023-04-08T04:41:23.992Z,2.33
2023-04-08T04:44:51.170Z,2.33
2023-04-08T04:48:18.083Z,2.34
2023-04-08T04:51:45.284Z,2.36
2023-04-08T04:55:13.325Z,2.36
2023-04-08T04:58:40.070Z,2.39
2023-04-08T05:02:07.119Z,2.39
2023-04-08T05:05:34.206Z,2.40
2023-04-08T05:09:01.329Z,2.41
2023-04-08T05:12:29.424Z,2.43
2023-04-08T05:15:56.521Z,2.47
2023-04-08T05:19:23.935Z,2.53
2023-04-08T05:22:52.175Z,2.63
2023-04-08T05:26:20.366Z,2.73
2023-04-08T05:29:47.470Z,2.85
2023-04-08T05:33:14.642Z,2.96
2023-04-08T05:36:42.293Z,3.07
2023-04-08T05:40:11.509Z,3.17
2023-04-08T05:43:38.551Z,3.28
2023-04-08T05:47:05.575Z,3.39
2023-04-08T05:50:32.582Z,3.50
2023-04-08T05:53:59.665Z,3.60
2023-04-08T05:57:26.690Z,3.71
2023-04-08T06:00:55.742Z,3.82
2023-04-08T06:04:26.368Z,3.94
2023-04-08T06:07:54.462Z,4.07
2023-04-08T06:11:22.438Z,4.19
2023-04-08T06:14:50.513Z,4.30
2023-04-08T06:18:18.875Z,4.43
2023-04-08T06:21:48.816Z,4.58
2023-04-08T06:25:17.165Z,4.69
2023-04-08T06:28:46.403Z,4.83
2023-04-08T06:32:15.209Z,4.94
2023-04-08T06:35:42.575Z,5.04
2023-04-08T06:39:10.854Z,5.12
2023-04-08T06:42:41.089Z,5.24
2023-04-08T06:46:23.190Z,5.37
2023-04-08T06:49:54.645Z,5.48
2023-04-08T06:53:25.223Z,5.54
2023-04-08T06:56:53.901Z,5.59
2023-04-08T07:00:23.415Z,5.70
2023-04-08T07:03:51.326Z,5.79
2023-04-08T07:07:21.048Z,5.87
2023-04-08T07:10:51.321Z,5.95
2023-04-08T07:14:22.705Z,6.02
2023-04-08T07:17:51.356Z,6.09
2023-04-08T07:21:18.850Z,6.22
2023-04-08T07:24:49.838Z,6.35
2023-04-08T07:28:17.133Z,6.47
2023-04-08T07:31:45.629Z,6.49
2023-04-08T07:35:12.893Z,6.43
2023-04-08T07:38:39.866Z,6.40
2023-04-08T07:42:07.026Z,6.47
2023-04-08T07:45:34.081Z,6.52
2023-04-08T07:49:01.319Z,6.61
2023-04-08T07:52:28.113Z,6.70
2023-04-08T07:55:54.976Z,6.80
2023-04-08T07:59:22.113Z,6.92
2023-04-08T08:02:49.440Z,7.02
2023-04-08T08:06:16.768Z,7.10
2023-04-08T08:09:43.678Z,7.10
2023-04-08T08:13:12.519Z,7.12
2023-04-08T08:16:40.005Z,7.20
2023-04-08T08:20:08.959Z,7.24
2023-04-08T08:23:36.154Z,7.35
2023-04-08T08:27:06.492Z,7.44
2023-04-08T08:30:35.476Z,7.45
2023-04-08T08:34:03.830Z,7.45
2023-04-08T08:37:31.821Z,7.51
2023-04-08T08:40:59.692Z,7.47
2023-04-08T08:44:27.277Z,7.42
2023-04-08T08:47:54.492Z,7.38
2023-04-08T08:51:22.542Z,7.43
2023-04-08T08:54:58.703Z,7.52
2023-04-08T08:58:33.418Z,7.63
2023-04-08T09:02:02.736Z,7.72
2023-04-08T09:05:48.819Z,7.85
2023-04-08T09:09:17.388Z,7.96
2023-04-08T09:12:58.890Z,7.94
2023-04-08T09:16:27.830Z,7.88
2023-04-08T09:20:12.052Z,7.83
2023-04-08T09:23:45.742Z,7.85
2023-04-08T09:27:13.979Z,8.00
2023-04-08T09:30:41.991Z,8.21
2023-04-08T09:34:16.676Z,8.48
2023-04-08T09:37:44.201Z,8.72
2023-04-08T09:41:13.819Z,8.88
2023-04-08T09:44:43.765Z,9.01
2023-04-08T09:48:22.366Z,9.14
2023-04-08T09:51:51.330Z,9.37
2023-04-08T09:55:22.951Z,9.56
2023-04-08T09:59:00.226Z,9.78
2023-04-08T10:02:37.030Z,10.05
2023-04-08T10:06:05.836Z,10.31
2023-04-08T10:09:34.376Z,10.45
2023-04-08T10:13:01.737Z,10.52
2023-04-08T10:16:29.995Z,10.57
2023-04-08T10:19:58.736Z,10.62
2023-04-08T10:24:08.441Z,10.67
2023-04-08T10:27:42.969Z,10.69
2023-04-08T10:31:23.333Z,10.59
2023-04-08T10:34:56.845Z,10.53
2023-04-08T10:38:23.949Z,10.63
2023-04-08T10:41:51.827Z,10.71
2023-04-08T10:45:21.018Z,10.78
2023-04-08T10:49:00.664Z,10.92
2023-04-08T10:52:28.239Z,10.88
2023-04-08T10:55:55.513Z,10.78
2023-04-08T10:59:32.185Z,10.65
2023-04-08T11:03:04.262Z,10.61
2023-04-08T11:06:32.281Z,10.64
2023-04-08T11:10:00.894Z,10.84
2023-04-08T11:13:28.916Z,11.07
2023-04-08T11:16:56.106Z,11.18
2023-04-08T11:20:23.561Z,11.26
2023-04-08T11:23:53.584Z,11.24
2023-04-08T11:27:23.265Z,11.15
2023-04-08T11:30:50.890Z,11.14
2023-04-08T11:34:25.648Z,11.12
2023-04-08T11:37:55.723Z,11.13
2023-04-08T11:41:23.037Z,11.12
2023-04-08T11:44:49.992Z,11.13
2023-04-08T11:48:18.097Z,11.12
2023-04-08T11:51:59.578Z,11.07
2023-04-08T11:55:28.089Z,11.01
2023-04-08T11:58:55.350Z,11.09
2023-04-08T12:02:22.369Z,11.18
2023-04-08T12:05:49.844Z,11.26
2023-04-08T12:09:17.131Z,11.41
2023-04-08T12:12:44.279Z,11.45
2023-04-08T12:16:12.474Z,11.62
2023-04-08T12:19:39.281Z,11.67
2023-04-08T12:23:08.272Z,11.79
2023-04-08T12:26:35.170Z,11.93
2023-04-08T12:30:02.391Z,12.04
2023-04-08T12:33:29.630Z,12.28
2023-04-08T12:36:56.728Z,12.61
2023-04-08T12:40:24.098Z,12.76
2023-04-08T12:43:51.191Z,12.76
2023-04-08T12:47:18.392Z,12.89
2023-04-08T12:50:45.619Z,12.90
2023-04-08T12:54:12.581Z,12.90
2023-04-08T12:57:39.666Z,13.02
2023-04-08T13:01:07.474Z,12.98
2023-04-08T13:04:34.563Z,12.96
2023-04-08T13:08:01.702Z,12.83
2023-04-08T13:11:28.980Z,12.75
2023-04-08T13:14:56.333Z,12.69
2023-04-08T13:18:23.394Z,12.55
2023-04-08T13:21:50.369Z,12.56
2023-04-08T13:25:18.373Z,12.64
2023-04-08T13:28:56.630Z,12.82
2023-04-08T13:32:26.338Z,13.06
2023-04-08T13:35:55.563Z,13.29
2023-04-08T13:39:25.465Z,13.41
2023-04-08T13:42:53.774Z,13.59
2023-04-08T13:46:21.635Z,13.71
2023-04-08T13:49:49.458Z,13.83
2023-04-08T13:53:18.024Z,14.00
2023-04-08T13:56:45.468Z,14.16
2023-04-08T14:00:15.826Z,14.25
2023-04-08T14:03:44.334Z,14.25
2023-04-08T14:07:12.459Z,14.24
2023-04-08T14:10:41.184Z,14.28
2023-04-08T14:14:11.478Z,14.35
2023-04-08T14:17:42.193Z,14.42
2023-04-08T14:21:11.063Z,14.43
2023-04-08T14:24:40.349Z,14.38
2023-04-08T14:28:09.318Z,14.37
2023-04-08T14:31:37.541Z,14.23
2023-04-08T14:35:07.593Z,14.20
2023-04-08T14:38:39.278Z,14.16
2023-04-08T14:42:07.471Z,14.15
2023-04-08T14:45:35.135Z,14.09
2023-04-08T14:49:02.909Z,13.89
2023-04-08T14:52:30.927Z,13.79
2023-04-08T14:55:59.422Z,13.72
2023-04-08T14:59:26.899Z,13.59
2023-04-08T15:02:53.985Z,13.52
2023-04-08T15:06:21.870Z,13.46
2023-04-08T15:09:49.246Z,13.44
2023-04-08T15:13:18.540Z,13.43
2023-04-08T15:16:46.543Z,13.38
2023-04-08T15:20:15.732Z,13.34
2023-04-08T15:23:44.317Z,13.33
2023-04-08T15:27:11.739Z,13.30
2023-04-08T15:30:39.322Z,13.31
2023-04-08T15:34:06.622Z,13.37
2023-04-08T15:37:34.354Z,13.43
2023-04-08T15:41:02.375Z,13.54
2023-04-08T15:44:33.731Z,13.64
2023-04-08T15:48:01.389Z,13.73
2023-04-08T15:51:28.901Z,13.78
2023-04-08T15:54:55.953Z,13.88
2023-04-08T15:58:23.032Z,13.96
2023-04-08T16:01:50.077Z,14.01
2023-04-08T16:05:17.115Z,14.07
2023-04-08T16:08:44.832Z,14.10
2023-04-08T16:12:12.068Z,14.07
2023-04-08T16:15:39.097Z,14.02
2023-04-08T16:19:07.559Z,13.96
2023-04-08T16:22:35.419Z,13.76
2023-04-08T16:26:03.562Z,13.50
2023-04-08T16:29:31.563Z,13.20
2023-04-08T16:32:59.019Z,12.97
2023-04-08T16:36:26.301Z,12.81
2023-04-08T16:39:54.753Z,12.73
2023-04-08T16:43:22.888Z,12.64
2023-04-08T16:46:51.022Z,12.51
2023-04-08T16:50:18.682Z,12.38
2023-04-08T16:53:46.784Z,12.29
2023-04-08T16:57:15.065Z,12.21
2023-04-08T17:00:42.623Z,12.10
2023-04-08T17:04:10.320Z,11.96
2023-04-08T17:07:40.022Z,11.81
2023-04-08T17:11:12.761Z,11.66
2023-04-08T17:14:41.328Z,11.50
2023-04-08T17:18:08.725Z,11.32
2023-04-08T17:21:36.886Z,11.15
2023-04-08T17:25:04.906Z,10.97
2023-04-08T17:28:32.613Z,10.76
2023-04-08T17:32:00.381Z,10.58
2023-04-08T17:35:28.663Z,10.41
2023-04-08T17:38:56.333Z,10.26
2023-04-08T17:42:24.405Z,10.10
2023-04-08T17:45:51.757Z,9.97
2023-04-08T17:49:18.975Z,9.85
2023-04-08T17:52:47.894Z,9.74
2023-04-08T17:56:15.088Z,9.60
2023-04-08T17:59:42.723Z,9.47
2023-04-08T18:03:10.842Z,9.33
2023-04-08T18:06:38.487Z,9.17
2023-04-08T18:10:08.580Z,9.03
2023-04-08T18:13:36.592Z,8.88
2023-04-08T18:17:05.447Z,8.72
2023-04-08T18:20:35.800Z,8.54
2023-04-08T18:24:03.654Z,8.39
2023-04-08T18:27:30.928Z,8.29
2023-04-08T18:30:58.302Z,8.18
2023-04-08T18:34:26.840Z,8.06
2023-04-08T18:37:54.068Z,7.93
2023-04-08T18:41:24.269Z,7.81
2023-04-08T18:44:51.950Z,7.69
2023-04-08T18:48:19.592Z,7.57
2023-04-08T18:51:58.995Z,7.47
2023-04-08T18:55:30.396Z,7.39
2023-04-08T18:58:57.775Z,7.33
2023-04-08T19:02:25.929Z,7.26
2023-04-08T19:05:53.853Z,7.20
2023-04-08T19:09:22.121Z,7.14
2023-04-08T19:12:49.856Z,7.08
2023-04-08T19:16:17.508Z,7.02
2023-04-08T19:19:46.865Z,6.94
2023-04-08T19:23:15.538Z,6.83
2023-04-08T19:26:43.309Z,6.72
2023-04-08T19:30:12.733Z,6.62
2023-04-08T19:33:40.199Z,6.55
2023-04-08T19:37:08.769Z,6.46
2023-04-08T19:40:35.893Z,6.36
2023-04-08T19:44:03.425Z,6.28
2023-04-08T19:47:30.964Z,6.20
2023-04-08T19:50:58.495Z,6.12
2023-04-08T19:54:30.202Z,6.05
2023-04-08T19:57:59.440Z,5.96
2023-04-08T20:01:28.138Z,5.89
2023-04-08T20:04:55.167Z,5.83
2023-04-08T20:08:22.015Z,5.78
2023-04-08T20:11:48.987Z,5.72
2023-04-08T20:15:24.095Z,5.62
2023-04-08T20:18:52.442Z,5.51
2023-04-08T20:22:19.611Z,5.38
2023-04-08T20:25:46.632Z,5.25
2023-04-08T20:29:13.604Z,5.14
2023-04-08T20:32:40.724Z,5.05
2023-04-08T20:36:07.975Z,4.96
2023-04-08T20:39:34.783Z,4.88
2023-04-08T20:43:02.434Z,4.82
2023-04-08T20:46:29.547Z,4.77
2023-04-08T20:49:56.565Z,4.78
2023-04-08T20:53:23.844Z,4.81
2023-04-08T20:56:50.765Z,4.82
2023-04-08T21:00:18.236Z,4.84
2023-04-08T21:03:45.359Z,4.89
2023-04-08T21:07:12.195Z,4.94
2023-04-08T21:10:39.457Z,4.95
2023-04-08T21:14:06.325Z,4.96
2023-04-08T21:17:33.351Z,4.93
2023-04-08T21:21:00.516Z,4.91
2023-04-08T21:24:28.580Z,4.89
2023-04-08T21:27:55.548Z,4.86
2023-04-08T21:31:22.496Z,4.82
2023-04-08T21:34:49.413Z,4.78
2023-04-08T21:38:16.422Z,4.74
2023-04-08T21:41:43.879Z,4.69
2023-04-08T21:45:13.260Z,4.66
2023-04-08T21:48:40.117Z,4.62
2023-04-08T21:52:07.262Z,4.58
2023-04-08T21:55:34.135Z,4.54
2023-04-08T21:59:01.179Z,4.52
2023-04-08T22:02:28.528Z,4.51
2023-04-08T22:05:56.359Z,4.50
2023-04-08T22:09:23.312Z,4.48
2023-04-08T22:12:50.348Z,4.47
2023-04-08T22:16:17.183Z,4.44
2023-04-08T22:19:44.142Z,4.41
2023-04-08T22:23:10.978Z,4.38
2023-04-08T22:26:37.805Z,4.34
2023-04-08T22:30:05.522Z,4.30
2023-04-08T22:33:32.470Z,4.26
2023-04-08T22:36:59.607Z,4.22
2023-04-08T22:40:26.730Z,4.18
2023-04-08T22:43:54.012Z,4.16
2023-04-08T22:47:21.408Z,4.13
2023-04-08T22:50:48.210Z,4.13
2023-04-08T22:54:19.022Z,4.13
2023-04-08T22:57:47.039Z,4.15
2023-04-08T23:01:17.218Z,4.18
2023-04-08T23:04:44.176Z,4.20
2023-04-08T23:08:11.202Z,4.22
2023-04-08T23:11:38.103Z,4.24
2023-04-08T23:15:05.892Z,4.25
2023-04-08T23:18:32.902Z,4.26
2023-04-08T23:21:59.921Z,4.30
2023-04-08T23:25:27.000Z,4.32
2023-04-08T23:28:54.244Z,4.33
2023-04-08T23:32:21.304Z,4.35
2023-04-08T23:35:48.294Z,4.35
2023-04-08T23:39:15.786Z,4.36
2023-04-08T23:42:42.873Z,4.36
2023-04-08T23:46:09.995Z,4.39
2023-04-08T23:49:37.137Z,4.41
2023-04-08T23:53:04.767Z,4.43
2023-04-08T23:56:31.924Z,4.45
2023-04-08T23:59:59.725Z,4.47
